createdAt,value
2023-01-29T00:01:13.895Z,47.00
2023-01-29T00:03:43.843Z,48.22
2023-01-29T00:06:16.031Z,47.25
2023-01-29T00:08:45.621Z,47.03
2023-01-29T00:11:16.624Z,47.53
2023-01-29T00:13:46.356Z,50.95
2023-01-29T00:16:16.077Z,52.38
2023-01-29T00:18:46.011Z,47.30
2023-01-29T00:21:20.046Z,47.90
2023-01-29T00:23:49.839Z,48.10
2023-01-29T00:26:20.068Z,47.90
2023-01-29T00:28:51.055Z,43.40
2023-01-29T00:31:22.557Z,45.65
2023-01-29T00:33:52.699Z,44.55
2023-01-29T00:36:25.413Z,41.00
2023-01-29T00:38:58.820Z,42.20
2023-01-29T00:41:42.415Z,43.33
2023-01-29T00:44:24.652Z,42.13
2023-01-29T00:46:55.039Z,41.00
2023-01-29T00:49:25.967Z,42.67
2023-01-29T00:52:10.662Z,42.58
2023-01-29T00:54:40.309Z,41.13
2023-01-29T00:57:09.896Z,41.72
2023-01-29T00:59:40.491Z,40.17
2023-01-29T01:02:22.616Z,44.28
2023-01-29T01:04:52.238Z,42.33
2023-01-29T01:07:24.610Z,40.92
2023-01-29T01:10:06.489Z,41.63
2023-01-29T01:12:36.745Z,41.53
2023-01-29T01:15:06.777Z,41.50
2023-01-29T01:17:36.486Z,40.85
2023-01-29T01:20:06.500Z,48.10
2023-01-29T01:22:38.722Z,43.67
2023-01-29T01:25:09.132Z,40.40
2023-01-29T01:27:41.216Z,36.55
2023-01-29T01:30:13.952Z,38.20
2023-01-29T01:32:45.178Z,38.30
2023-01-29T01:35:15.049Z,40.45
2023-01-29T01:37:47.285Z,40.72
2023-01-29T01:40:20.218Z,39.97
2023-01-29T01:42:51.346Z,39.38
2023-01-29T01:45:24.379Z,38.22
2023-01-29T01:50:30.119Z,37.67
2023-01-29T01:53:07.325Z,40.47
2023-01-29T01:55:37.962Z,38.33
2023-01-29T01:58:12.766Z,38.42
2023-01-29T02:00:42.828Z,40.30
2023-01-29T02:03:25.833Z,40.33
2023-01-29T02:06:09.140Z,40.80
2023-01-29T02:08:58.988Z,40.67
2023-01-29T02:11:28.602Z,41.08
2023-01-29T02:13:58.387Z,42.08
2023-01-29T02:16:28.534Z,45.10
2023-01-29T02:18:58.584Z,46.85
2023-01-29T02:22:01.041Z,43.20
2023-01-29T02:25:10.478Z,43.75
2023-01-29T02:28:05.733Z,41.78
2023-01-29T02:30:41.019Z,40.70
2023-01-29T02:33:17.350Z,39.50
2023-01-29T02:35:52.642Z,40.30
2023-01-29T02:38:27.396Z,39.55
2023-01-29T02:40:59.064Z,36.80
2023-01-29T02:43:33.065Z,36.00
2023-01-29T02:46:11.004Z,36.20
2023-01-29T02:48:46.010Z,37.67
2023-01-29T02:51:21.818Z,42.28
2023-01-29T02:53:57.435Z,38.95
2023-01-29T02:56:31.374Z,39.90
2023-01-29T02:59:05.000Z,36.60
2023-01-29T03:01:40.654Z,39.80
2023-01-29T03:04:14.387Z,39.33
2023-01-29T03:06:46.257Z,38.67
2023-01-29T03:09:19.165Z,39.05
2023-01-29T03:11:51.714Z,41.15
2023-01-29T03:14:47.293Z,42.72
2023-01-29T03:17:19.572Z,39.28
2023-01-29T03:19:50.057Z,38.78
2023-01-29T03:22:27.915Z,39.88
2023-01-29T03:25:13.169Z,38.75
2023-01-29T03:27:59.494Z,41.55
2023-01-29T03:30:49.791Z,38.90
2023-01-29T03:33:48.942Z,39.35
2023-01-29T03:36:22.424Z,40.15
2023-01-29T03:38:52.251Z,37.67
2023-01-29T03:41:28.593Z,39.53
2023-01-29T03:44:03.309Z,40.03
2023-01-29T03:46:35.269Z,35.28
2023-01-29T03:49:12.947Z,35.47
2023-01-29T03:51:59.292Z,34.85
2023-01-29T03:54:32.417Z,37.97
2023-01-29T03:57:06.093Z,40.10
2023-01-29T03:59:41.751Z,40.25
2023-01-29T04:02:27.926Z,37.42
2023-01-29T04:05:06.942Z,38.85
2023-01-29T04:07:44.501Z,39.33
2023-01-29T04:10:19.936Z,40.05
2023-01-29T04:12:52.754Z,39.38
2023-01-29T04:15:23.428Z,36.78
2023-01-29T04:17:55.563Z,33.33
2023-01-29T04:20:40.882Z,38.67
2023-01-29T04:23:22.949Z,39.17
2023-01-29T04:25:59.498Z,39.72
2023-01-29T04:28:48.938Z,38.25
2023-01-29T04:31:19.138Z,37.55
2023-01-29T04:33:55.921Z,37.92
2023-01-29T04:36:37.276Z,37.58
2023-01-29T04:39:14.264Z,34.55
2023-01-29T04:41:51.020Z,35.88
2023-01-29T04:44:23.916Z,37.72
2023-01-29T04:47:00.899Z,35.88
2023-01-29T04:49:36.753Z,35.75
2023-01-29T04:52:15.058Z,34.63
2023-01-29T04:54:53.883Z,34.92
2023-01-29T04:57:28.114Z,35.78
2023-01-29T05:02:30.066Z,32.97
2023-01-29T05:05:00.468Z,34.78
2023-01-29T05:07:33.891Z,34.63
2023-01-29T05:10:03.642Z,34.75
2023-01-29T05:12:33.412Z,34.40
2023-01-29T05:15:05.428Z,34.03
2023-01-29T05:17:35.023Z,32.85
2023-01-29T05:20:04.643Z,34.38
2023-01-29T05:22:40.262Z,35.30
2023-01-29T05:25:23.698Z,32.83
2023-01-29T05:28:07.260Z,32.63
2023-01-29T05:30:38.586Z,31.57
2023-01-29T05:33:13.564Z,33.90
2023-01-29T05:35:43.205Z,33.75
2023-01-29T05:38:15.834Z,32.40
2023-01-29T05:40:45.724Z,32.65
2023-01-29T05:43:18.557Z,33.00
2023-01-29T05:45:55.344Z,32.13
2023-01-29T05:48:25.244Z,30.80
2023-01-29T05:50:55.036Z,31.98
2023-01-29T05:53:27.197Z,33.10
2023-01-29T05:55:57.274Z,33.30
2023-01-29T05:58:26.865Z,32.90
2023-01-29T06:00:56.530Z,34.10
2023-01-29T06:03:26.102Z,32.70
2023-01-29T06:05:56.154Z,32.13
2023-01-29T06:08:28.381Z,32.90
2023-01-29T06:10:57.993Z,32.25
2023-01-29T06:13:27.680Z,33.40
2023-01-29T06:15:57.333Z,31.35
2023-01-29T06:18:26.904Z,32.10
2023-01-29T06:20:56.486Z,32.88
2023-01-29T06:23:28.626Z,35.13
2023-01-29T06:26:02.666Z,33.72
2023-01-29T06:28:32.315Z,33.22
2023-01-29T06:31:21.014Z,34.30
2023-01-29T06:33:52.029Z,34.92
2023-01-29T06:36:21.629Z,33.40
2023-01-29T06:38:53.778Z,33.17
2023-01-29T06:41:25.669Z,33.72
2023-01-29T06:43:55.452Z,32.78
2023-01-29T06:46:25.233Z,33.20
2023-01-29T06:48:54.889Z,32.92
2023-01-29T06:51:24.658Z,32.00
2023-01-29T06:53:57.209Z,31.98
2023-01-29T06:56:27.082Z,31.60
2023-01-29T06:58:56.682Z,30.38
2023-01-29T07:01:35.783Z,30.73
2023-01-29T07:04:06.062Z,31.98
2023-01-29T07:06:36.243Z,30.35
2023-01-29T07:09:08.470Z,30.65
2023-01-29T07:11:38.221Z,30.30
2023-01-29T07:14:08.114Z,31.05
2023-01-29T07:16:37.818Z,30.70
2023-01-29T07:19:07.381Z,31.25
2023-01-29T07:21:37.020Z,29.58
2023-01-29T07:24:09.906Z,28.90
2023-01-29T07:26:39.604Z,30.85
2023-01-29T07:29:09.148Z,29.98
2023-01-29T07:31:38.928Z,28.17
2023-01-29T07:34:08.540Z,30.67
2023-01-29T07:36:38.127Z,31.42
2023-01-29T07:39:10.299Z,28.80
2023-01-29T07:41:39.908Z,30.55
2023-01-29T07:44:18.309Z,29.05
2023-01-29T07:46:47.899Z,30.80
2023-01-29T07:49:17.686Z,30.20
2023-01-29T07:51:47.297Z,31.17
2023-01-29T07:54:19.446Z,30.95
2023-01-29T07:56:49.038Z,30.98
2023-01-29T07:59:18.809Z,29.67
2023-01-29T08:01:48.432Z,30.45
2023-01-29T08:04:17.976Z,28.38
2023-01-29T08:06:47.636Z,30.20
2023-01-29T08:09:19.831Z,28.13
2023-01-29T08:11:49.434Z,27.15
2023-01-29T08:14:19.005Z,29.70
2023-01-29T08:16:48.658Z,27.77
2023-01-29T08:19:18.286Z,31.88
2023-01-29T08:21:47.896Z,28.98
2023-01-29T08:24:20.409Z,28.25
2023-01-29T08:26:50.046Z,29.73
2023-01-29T08:29:19.633Z,28.42
2023-01-29T08:31:49.367Z,28.20
2023-01-29T08:34:19.007Z,28.75
2023-01-29T08:36:48.576Z,27.65
2023-01-29T08:39:20.741Z,28.17
2023-01-29T08:41:50.358Z,29.00
2023-01-29T08:44:20.124Z,28.60
2023-01-29T08:46:49.710Z,28.15
2023-01-29T08:49:19.505Z,28.55
2023-01-29T08:51:49.137Z,26.42
2023-01-29T08:54:21.370Z,28.65
2023-01-29T08:56:51.273Z,28.17
2023-01-29T08:59:22.868Z,28.02
2023-01-29T09:01:52.511Z,27.55
2023-01-29T09:04:22.071Z,27.13
2023-01-29T09:06:51.658Z,28.92
2023-01-29T09:09:23.935Z,27.92
2023-01-29T09:11:53.624Z,27.50
2023-01-29T09:14:23.380Z,28.83
2023-01-29T09:16:52.980Z,27.95
2023-01-29T09:19:22.542Z,27.52
2023-01-29T09:21:52.311Z,28.48
2023-01-29T09:24:24.524Z,28.25
2023-01-29T09:26:54.230Z,27.40
2023-01-29T09:29:23.890Z,27.30
2023-01-29T09:31:53.593Z,28.95
2023-01-29T09:34:23.260Z,27.25
2023-01-29T09:36:52.834Z,26.92
2023-01-29T09:39:25.029Z,29.20
2023-01-29T09:41:59.856Z,27.48
2023-01-29T09:44:41.374Z,27.48
2023-01-29T09:47:14.702Z,26.85
2023-01-29T09:49:48.038Z,28.27
2023-01-29T09:52:21.209Z,28.93
2023-01-29T09:55:05.160Z,28.52
2023-01-29T09:57:49.568Z,27.10
2023-01-29T10:00:23.660Z,26.38
2023-01-29T10:03:21.791Z,27.40
2023-01-29T10:06:07.423Z,27.20
2023-01-29T10:08:51.196Z,26.17
2023-01-29T10:11:30.494Z,25.38
2023-01-29T10:14:07.396Z,24.92
2023-01-29T10:16:50.819Z,26.20
2023-01-29T10:19:54.062Z,26.58
2023-01-29T10:22:39.886Z,26.05
2023-01-29T10:25:13.530Z,26.30
2023-01-29T10:27:50.266Z,29.15
2023-01-29T10:30:36.226Z,26.08
2023-01-29T10:33:07.717Z,25.23
2023-01-29T10:35:39.148Z,27.65
2023-01-29T10:38:24.334Z,26.23
2023-01-29T10:40:58.558Z,27.05
2023-01-29T10:46:13.225Z,26.08
2023-01-29T10:48:58.388Z,26.30
2023-01-29T10:51:38.908Z,25.00
2023-01-29T10:54:21.115Z,26.33
2023-01-29T10:57:02.169Z,26.67
2023-01-29T10:59:46.362Z,24.35
2023-01-29T11:02:18.642Z,25.90
2023-01-29T11:04:48.446Z,24.70
2023-01-29T11:07:19.874Z,24.98
2023-01-29T11:09:55.316Z,25.20
2023-01-29T11:12:27.397Z,24.70
2023-01-29T11:15:02.982Z,25.25
2023-01-29T11:17:32.577Z,25.38
2023-01-29T11:20:02.150Z,24.38
2023-01-29T11:22:33.014Z,24.40
2023-01-29T11:25:14.065Z,23.10
2023-01-29T11:27:47.172Z,23.77
2023-01-29T11:30:26.325Z,23.88
2023-01-29T11:33:04.167Z,23.10
2023-01-29T11:35:33.831Z,23.27
2023-01-29T11:38:11.026Z,24.77
2023-01-29T11:40:42.555Z,23.85
2023-01-29T11:43:19.566Z,23.83
2023-01-29T11:45:52.879Z,25.58
2023-01-29T11:48:24.285Z,25.20
2023-01-29T11:50:55.720Z,24.20
2023-01-29T11:53:30.268Z,22.55
2023-01-29T11:55:59.990Z,24.67
2023-01-29T11:58:31.688Z,23.67
2023-01-29T12:01:04.480Z,23.42
2023-01-29T12:03:37.607Z,24.17
2023-01-29T12:06:09.978Z,23.48
2023-01-29T12:08:41.056Z,24.75
2023-01-29T12:11:12.818Z,23.65
2023-01-29T12:13:43.705Z,23.65
2023-01-29T12:16:26.351Z,23.10
2023-01-29T12:18:59.978Z,24.83
2023-01-29T12:21:33.293Z,26.33
2023-01-29T12:24:06.763Z,26.23
2023-01-29T12:26:38.979Z,24.05
2023-01-29T12:29:19.191Z,24.60
2023-01-29T12:31:54.443Z,25.65
2023-01-29T12:34:30.484Z,25.80
2023-01-29T12:37:06.119Z,24.65
2023-01-29T12:39:35.674Z,25.25
2023-01-29T12:42:08.098Z,25.33
2023-01-29T12:44:42.453Z,24.55
2023-01-29T12:47:17.955Z,23.80
2023-01-29T12:49:49.487Z,25.75
2023-01-29T12:52:22.192Z,24.85
2023-01-29T12:54:56.235Z,25.20
2023-01-29T12:57:28.999Z,25.60
2023-01-29T13:00:02.189Z,24.90
2023-01-29T13:02:40.806Z,25.63
2023-01-29T13:05:20.735Z,23.92
2023-01-29T13:07:52.819Z,23.25
2023-01-29T13:10:27.641Z,25.85
2023-01-29T13:13:01.638Z,24.40
2023-01-29T13:15:33.659Z,25.23
2023-01-29T13:18:36.633Z,24.63
2023-01-29T13:21:07.634Z,24.08
2023-01-29T13:23:40.024Z,24.10
2023-01-29T13:26:09.667Z,23.65
2023-01-29T13:28:39.482Z,25.02
2023-01-29T13:31:21.680Z,25.20
2023-01-29T13:34:01.813Z,25.02
2023-01-29T13:36:32.974Z,25.80
2023-01-29T13:39:05.715Z,25.40
2023-01-29T13:41:40.260Z,25.67
2023-01-29T13:44:20.628Z,23.35
2023-01-29T13:46:57.587Z,22.63
2023-01-29T13:49:41.500Z,24.25
2023-01-29T13:52:22.310Z,22.85
2023-01-29T13:54:57.930Z,23.17
2023-01-29T13:57:40.568Z,22.60
2023-01-29T14:01:02.351Z,23.38
2023-01-29T14:04:04.590Z,23.70
2023-01-29T14:06:52.521Z,22.95
2023-01-29T14:09:58.198Z,23.08
2023-01-29T14:12:43.939Z,23.75
2023-01-29T14:15:31.230Z,24.67
2023-01-29T14:18:07.801Z,23.48
2023-01-29T14:20:45.972Z,23.23
2023-01-29T14:23:26.994Z,24.80
2023-01-29T14:25:56.752Z,22.90
2023-01-29T14:28:28.787Z,23.45
2023-01-29T14:30:58.605Z,24.65
2023-01-29T14:33:36.792Z,24.55
2023-01-29T14:36:08.298Z,23.17
2023-01-29T14:38:41.941Z,24.00
2023-01-29T14:41:19.671Z,23.17
2023-01-29T14:43:49.291Z,22.17
2023-01-29T14:46:47.004Z,23.92
2023-01-29T14:49:52.056Z,27.23
2023-01-29T14:52:23.893Z,23.98
2023-01-29T14:54:56.717Z,22.20
2023-01-29T14:57:26.432Z,22.70
2023-01-29T14:59:59.085Z,22.75
2023-01-29T15:02:37.135Z,22.60
2023-01-29T15:05:10.509Z,22.65
2023-01-29T15:07:42.614Z,22.97
2023-01-29T15:10:22.772Z,24.50
2023-01-29T15:12:55.548Z,23.63
2023-01-29T15:15:35.982Z,23.13
2023-01-29T15:18:08.597Z,22.02
2023-01-29T15:20:39.474Z,22.48
2023-01-29T15:23:27.859Z,23.17
2023-01-29T15:26:01.804Z,22.15
2023-01-29T15:28:32.280Z,22.08
2023-01-29T15:31:04.126Z,22.13
2023-01-29T15:33:34.365Z,22.85
2023-01-29T15:36:07.823Z,23.75
2023-01-29T15:38:38.021Z,22.10
2023-01-29T15:41:20.129Z,23.08
2023-01-29T15:43:51.662Z,21.92
2023-01-29T15:46:25.029Z,22.35
2023-01-29T15:48:55.428Z,22.80
2023-01-29T15:51:26.910Z,25.02
2023-01-29T15:53:58.390Z,23.25
2023-01-29T15:56:32.378Z,22.20
2023-01-29T15:59:07.322Z,23.17
2023-01-29T16:01:38.955Z,21.15
2023-01-29T16:04:08.988Z,22.40
2023-01-29T16:06:40.351Z,22.92
2023-01-29T16:09:10.531Z,22.55
2023-01-29T16:11:43.029Z,21.02
2023-01-29T16:14:15.554Z,22.40
2023-01-29T16:16:48.556Z,21.98
2023-01-29T16:19:24.163Z,21.85
2023-01-29T16:21:58.565Z,22.50
2023-01-29T16:24:28.381Z,20.88
2023-01-29T16:27:04.022Z,21.42
2023-01-29T16:29:35.492Z,21.83
2023-01-29T16:32:06.279Z,22.30
2023-01-29T16:34:38.468Z,21.13
2023-01-29T16:37:10.495Z,19.90
2023-01-29T16:39:42.572Z,20.27
2023-01-29T16:42:30.936Z,19.83
2023-01-29T16:45:03.188Z,19.20
2023-01-29T16:47:38.304Z,20.60
2023-01-29T16:50:36.057Z,19.50
2023-01-29T16:53:15.010Z,21.05
2023-01-29T16:55:46.990Z,20.15
2023-01-29T16:58:21.056Z,19.20
2023-01-29T17:00:52.683Z,19.35
2023-01-29T17:03:23.075Z,19.38
2023-01-29T17:05:52.661Z,18.58
2023-01-29T17:08:26.537Z,18.38
2023-01-29T17:10:56.255Z,18.58
2023-01-29T17:13:32.339Z,18.92
2023-01-29T17:16:03.369Z,18.35
2023-01-29T17:18:33.218Z,16.95
2023-01-29T17:21:02.798Z,17.58
2023-01-29T17:23:32.357Z,17.77
2023-01-29T17:26:02.543Z,17.33
2023-01-29T17:28:34.712Z,14.98
2023-01-29T17:31:06.890Z,15.88
2023-01-29T17:33:37.327Z,16.63
2023-01-29T17:36:07.436Z,15.77
2023-01-29T17:38:37.052Z,15.00
2023-01-29T17:41:09.311Z,14.93
2023-01-29T17:43:41.455Z,15.63
2023-01-29T17:46:14.435Z,13.93
2023-01-29T17:48:44.315Z,14.85
2023-01-29T17:51:16.177Z,17.42
2023-01-29T17:53:47.323Z,14.23
2023-01-29T17:56:18.818Z,14.35
2023-01-29T17:58:51.179Z,13.23
2023-01-29T18:01:20.763Z,14.15
2023-01-29T18:03:50.381Z,13.60
2023-01-29T18:06:25.007Z,12.98
2023-01-29T18:08:54.555Z,13.35
2023-01-29T18:11:24.157Z,13.38
2023-01-29T18:13:56.334Z,13.63
2023-01-29T18:16:27.267Z,13.35
2023-01-29T18:18:56.864Z,13.15
2023-01-29T18:21:26.567Z,12.73
2023-01-29T18:23:56.495Z,13.10
2023-01-29T18:26:26.134Z,13.93
2023-01-29T18:28:58.395Z,13.13
2023-01-29T18:31:28.109Z,13.73
2023-01-29T18:33:57.691Z,14.40
2023-01-29T18:36:27.327Z,14.90
2023-01-29T18:38:56.954Z,13.63
2023-01-29T18:41:26.690Z,13.95
2023-01-29T18:43:58.847Z,14.55
2023-01-29T18:46:28.507Z,13.48
2023-01-29T18:48:58.130Z,14.02
2023-01-29T18:51:27.753Z,13.38
2023-01-29T18:53:57.348Z,14.48
2023-01-29T18:56:26.922Z,14.20
2023-01-29T18:58:59.834Z,12.75
2023-01-29T19:01:29.467Z,14.35
2023-01-29T19:04:00.298Z,14.15
2023-01-29T19:06:30.284Z,13.65
2023-01-29T19:08:59.832Z,13.55
2023-01-29T19:11:29.397Z,14.82
2023-01-29T19:14:01.575Z,14.50
2023-01-29T19:16:31.166Z,14.93
2023-01-29T19:19:00.750Z,14.65
2023-01-29T19:21:30.585Z,15.68
2023-01-29T19:24:00.141Z,15.07
2023-01-29T19:26:33.920Z,15.40
2023-01-29T19:29:09.241Z,18.63
2023-01-29T19:31:39.166Z,13.90
2023-01-29T19:34:09.237Z,15.60
2023-01-29T19:36:39.017Z,14.77
2023-01-29T19:39:08.641Z,15.60
2023-01-29T19:41:38.263Z,14.77
2023-01-29T19:44:10.586Z,14.15
2023-01-29T19:46:40.253Z,16.90
2023-01-29T19:49:10.690Z,18.45
2023-01-29T19:51:40.927Z,20.77
2023-01-29T19:54:12.051Z,16.48
2023-01-29T19:56:41.641Z,14.48
2023-01-29T19:59:14.179Z,15.55
2023-01-29T20:01:43.849Z,15.57
2023-01-29T20:04:13.910Z,14.57
2023-01-29T20:06:43.494Z,16.13
2023-01-29T20:09:13.075Z,15.95
2023-01-29T20:11:42.725Z,15.70
2023-01-29T20:14:15.092Z,16.48
2023-01-29T20:16:44.703Z,15.88
2023-01-29T20:19:15.261Z,17.55
2023-01-29T20:21:50.065Z,17.20
2023-01-29T20:24:19.630Z,17.58
2023-01-29T20:26:49.283Z,17.95
2023-01-29T20:29:21.463Z,17.48
2023-01-29T20:31:51.203Z,16.08
2023-01-29T20:34:20.901Z,18.27
2023-01-29T20:36:50.477Z,17.45
2023-01-29T20:39:20.254Z,17.17
2023-01-29T20:41:49.871Z,17.52
2023-01-29T20:44:22.031Z,19.60
2023-01-29T20:46:51.748Z,18.88
2023-01-29T20:49:21.820Z,18.02
2023-01-29T20:51:51.417Z,17.70
2023-01-29T20:54:21.198Z,18.73
2023-01-29T20:56:50.977Z,17.90
2023-01-29T20:59:23.734Z,18.92
2023-01-29T21:01:53.346Z,18.75
2023-01-29T21:04:23.287Z,18.70
2023-01-29T21:06:52.882Z,18.88
2023-01-29T21:09:22.910Z,19.35
2023-01-29T21:11:52.472Z,19.42
2023-01-29T21:14:24.927Z,19.63
2023-01-29T21:16:54.525Z,17.45
2023-01-29T21:19:24.101Z,18.27
2023-01-29T21:21:53.710Z,17.83
2023-01-29T21:24:23.288Z,18.92
2023-01-29T21:26:52.993Z,18.42
2023-01-29T21:29:25.142Z,19.65
2023-01-29T21:31:54.781Z,20.05
2023-01-29T21:34:24.449Z,20.27
2023-01-29T21:36:54.597Z,20.20
2023-01-29T21:39:26.375Z,19.55
2023-01-29T21:42:08.552Z,19.15
2023-01-29T21:44:40.890Z,18.27
2023-01-29T21:47:14.897Z,18.95
2023-01-29T21:49:45.174Z,19.27
2023-01-29T21:52:15.721Z,18.58
2023-01-29T21:54:49.022Z,18.40
2023-01-29T21:57:19.522Z,19.10
2023-01-29T21:59:52.927Z,18.38
2023-01-29T22:02:24.000Z,19.27
2023-01-29T22:05:08.741Z,17.92
2023-01-29T22:07:47.010Z,19.23
2023-01-29T22:10:17.286Z,17.23
2023-01-29T22:12:47.349Z,17.98
2023-01-29T22:15:21.131Z,16.98
2023-01-29T22:17:52.178Z,18.85
2023-01-29T22:20:29.613Z,17.70
2023-01-29T22:23:00.992Z,19.83
2023-01-29T22:25:32.208Z,18.20
2023-01-29T22:28:01.849Z,18.92
2023-01-29T22:30:34.028Z,19.45
2023-01-29T22:33:03.695Z,19.77
2023-01-29T22:35:33.562Z,19.58
2023-01-29T22:38:03.121Z,18.48
2023-01-29T22:40:32.926Z,20.40
2023-01-29T22:43:02.509Z,18.55
2023-01-29T22:45:35.026Z,20.45
2023-01-29T22:48:06.056Z,19.50
2023-01-29T22:50:36.742Z,19.95
2023-01-29T22:53:06.390Z,19.42
2023-01-29T22:55:36.124Z,19.30
2023-01-29T22:58:05.733Z,17.80
2023-01-29T23:00:37.856Z,18.63
2023-01-29T23:03:07.418Z,16.35
2023-01-29T23:05:37.116Z,17.95
2023-01-29T23:08:06.716Z,17.50
2023-01-29T23:10:36.302Z,17.33
2023-01-29T23:13:05.860Z,18.20
2023-01-29T23:15:37.997Z,18.10
2023-01-29T23:18:08.603Z,18.65
2023-01-29T23:20:38.182Z,18.55
2023-01-29T23:23:07.730Z,17.42
2023-01-29T23:25:49.775Z,18.88
2023-01-29T23:28:19.345Z,17.98
2023-01-29T23:30:52.194Z,18.08
2023-01-29T23:33:21.979Z,17.25
2023-01-29T23:35:51.563Z,18.85
2023-01-29T23:38:21.119Z,18.83
2023-01-29T23:40:51.013Z,16.17
2023-01-29T23:43:22.603Z,17.63
2023-01-29T23:45:54.833Z,17.77
2023-01-29T23:48:24.867Z,18.50
2023-01-29T23:50:54.570Z,18.40
2023-01-29T23:53:24.367Z,17.55
2023-01-29T23:56:04.494Z,17.33
2023-01-29T23:58:35.008Z,17.52
